sensor_id;sensor_type;location;lat;lon;timestamp;pressure;altitude;pressure_sealevel;temperature;humidity
10706;BME280;5404;42.656;23.336;2023-10-13T00:00:31;95345.63;;;11.40;100.00
10706;BME280;5404;42.656;23.336;2023-10-13T00:03:04;95329.78;;;11.25;100.00
10706;BME280;5404;42.656;23.336;2023-10-13T00:05:31;95339.03;;;11.32;100.00
10706;BME280;5404;42.656;23.336;2023-10-13T00:07:59;95339.03;;;11.32;100.00
10706;BME280;5404;42.656;23.336;2023-10-13T00:10:27;95315.72;;;11.19;100.00
10706;BME280;5404;42.656;23.336;2023-10-13T00:12:52;95336.72;;;11.26;100.00
10706;BME280;5404;42.656;23.336;2023-10-13T00:15:18;95338.00;;;11.28;100.00
10706;BME280;5404;42.656;23.336;2023-10-13T00:17:46;95333.81;;;11.22;100.00
10706;BME280;5404;42.656;23.336;2023-10-13T00:20:12;95286.97;;;10.93;100.00
10706;BME280;5404;42.656;23.336;2023-10-13T00:22:55;95332.56;;;11.15;100.00
10706;BME280;5404;42.656;23.336;2023-10-13T00:25:22;95326.56;;;11.04;100.00
10706;BME280;5404;42.656;23.336;2023-10-13T00:27:52;95320.06;;;10.92;100.00
10706;BME280;5404;42.656;23.336;2023-10-13T00:30:18;95333.16;;;10.88;100.00
10706;BME280;5404;42.656;23.336;2023-10-13T00:32:58;95334.72;;;10.89;100.00
10706;BME280;5404;42.656;23.336;2023-10-13T00:35:25;95327.13;;;10.78;100.00
10706;BME280;5404;42.656;23.336;2023-10-13T00:38:04;95327.47;;;10.71;100.00
10706;BME280;5404;42.656;23.336;2023-10-13T00:40:38;95326.72;;;10.66;100.00
10706;BME280;5404;42.656;23.336;2023-10-13T00:43:04;95347.19;;;10.70;100.00
10706;BME280;5404;42.656;23.336;2023-10-13T00:45:45;95339.69;;;10.72;100.00
10706;BME280;5404;42.656;23.336;2023-10-13T00:48:53;95349.31;;;10.68;100.00
10706;BME280;5404;42.656;23.336;2023-10-13T00:51:17;95343.28;;;10.63;100.00
10706;BME280;5404;42.656;23.336;2023-10-13T00:53:48;95305.88;;;10.44;100.00
10706;BME280;5404;42.656;23.336;2023-10-13T00:56:15;95343.22;;;10.68;100.00
10706;BME280;5404;42.656;23.336;2023-10-13T00:58:53;95342.38;;;10.72;100.00
10706;BME280;5404;42.656;23.336;2023-10-13T01:01:19;95342.38;;;10.72;100.00
10706;BME280;5404;42.656;23.336;2023-10-13T01:03:51;95345.56;;;10.74;100.00
10706;BME280;5404;42.656;23.336;2023-10-13T01:06:22;95320.97;;;10.53;100.00
10706;BME280;5404;42.656;23.336;2023-10-13T01:09:04;95350.38;;;10.72;100.00
10706;BME280;5404;42.656;23.336;2023-10-13T01:11:47;95337.91;;;10.68;100.00
10706;BME280;5404;42.656;23.336;2023-10-13T01:14:17;95347.22;;;10.65;100.00
10706;BME280;5404;42.656;23.336;2023-10-13T01:16:47;95342.47;;;10.62;100.00
10706;BME280;5404;42.656;23.336;2023-10-13T01:19:18;95343.00;;;10.64;100.00
10706;BME280;5404;42.656;23.336;2023-10-13T01:21:51;95353.13;;;10.62;100.00
10706;BME280;5404;42.656;23.336;2023-10-13T01:24:22;95354.25;;;10.56;100.00
10706;BME280;5404;42.656;23.336;2023-10-13T01:26:49;95355.38;;;10.50;100.00
10706;BME280;5404;42.656;23.336;2023-10-13T01:29:16;95308.44;;;10.25;100.00
10706;BME280;5404;42.656;23.336;2023-10-13T01:31:45;95346.25;;;10.56;100.00
10706;BME280;5404;42.656;23.336;2023-10-13T01:34:19;95353.47;;;10.55;100.00
10706;BME280;5404;42.656;23.336;2023-10-13T01:36:51;95345.72;;;10.59;100.00
10706;BME280;5404;42.656;23.336;2023-10-13T01:39:22;95326.94;;;10.40;100.00
10706;BME280;5404;42.656;23.336;2023-10-13T01:41:54;95354.75;;;10.58;100.00
10706;BME280;5404;42.656;23.336;2023-10-13T01:46:49;95360.88;;;10.58;100.00
10706;BME280;5404;42.656;23.336;2023-10-13T01:49:14;95360.66;;;10.55;100.00
10706;BME280;5404;42.656;23.336;2023-10-13T01:51:42;95345.28;;;10.47;100.00
10706;BME280;5404;42.656;23.336;2023-10-13T01:54:08;95359.84;;;10.54;100.00
10706;BME280;5404;42.656;23.336;2023-10-13T01:56:37;95327.88;;;10.26;100.00
10706;BME280;5404;42.656;23.336;2023-10-13T01:59:08;95362.66;;;10.39;100.00
10706;BME280;5404;42.656;23.336;2023-10-13T02:01:34;95338.50;;;10.31;100.00
10706;BME280;5404;42.656;23.336;2023-10-13T02:04:01;95341.06;;;10.41;100.00
10706;BME280;5404;42.656;23.336;2023-10-13T02:06:31;95348.75;;;10.42;100.00
10706;BME280;5404;42.656;23.336;2023-10-13T02:09:06;95346.91;;;10.43;100.00
10706;BME280;5404;42.656;23.336;2023-10-13T02:11:41;95346.09;;;10.42;100.00
10706;BME280;5404;42.656;23.336;2023-10-13T02:14:07;95346.09;;;10.42;100.00
10706;BME280;5404;42.656;23.336;2023-10-13T02:16:37;95329.47;;;10.27;100.00
10706;BME280;5404;42.656;23.336;2023-10-13T02:19:03;95348.03;;;10.37;100.00
10706;BME280;5404;42.656;23.336;2023-10-13T02:21:34;95342.22;;;10.30;100.00
10706;BME280;5404;42.656;23.336;2023-10-13T02:24:06;95330.06;;;10.19;100.00
10706;BME280;5404;42.656;23.336;2023-10-13T02:26:38;95347.13;;;10.18;100.00
10706;BME280;5404;42.656;23.336;2023-10-13T02:29:07;95341.03;;;10.12;100.00
10706;BME280;5404;42.656;23.336;2023-10-13T02:31:41;95343.72;;;10.07;100.00
10706;BME280;5404;42.656;23.336;2023-10-13T02:34:07;95324.91;;;9.94;100.00
10706;BME280;5404;42.656;23.336;2023-10-13T02:36:36;95349.59;;;10.04;100.00
10706;BME280;5404;42.656;23.336;2023-10-13T02:39:05;95355.44;;;10.01;100.00
10706;BME280;5404;42.656;23.336;2023-10-13T02:41:33;95338.47;;;9.97;100.00
10706;BME280;5404;42.656;23.336;2023-10-13T02:44:02;95336.28;;;9.99;100.00
10706;BME280;5404;42.656;23.336;2023-10-13T02:46:31;95338.28;;;9.79;100.00
10706;BME280;5404;42.656;23.336;2023-10-13T02:49:00;95353.38;;;9.93;100.00
10706;BME280;5404;42.656;23.336;2023-10-13T02:51:27;95356.53;;;10.00;100.00
10706;BME280;5404;42.656;23.336;2023-10-13T02:54:11;95360.53;;;9.98;100.00
10706;BME280;5404;42.656;23.336;2023-10-13T02:56:45;95362.22;;;9.89;100.00
10706;BME280;5404;42.656;23.336;2023-10-13T02:59:22;95370.22;;;9.79;100.00
10706;BME280;5404;42.656;23.336;2023-10-13T03:02:00;95373.47;;;9.71;100.00
10706;BME280;5404;42.656;23.336;2023-10-13T03:04:26;95359.66;;;9.69;100.00
10706;BME280;5404;42.656;23.336;2023-10-13T03:06:52;95319.91;;;9.43;100.00
10706;BME280;5404;42.656;23.336;2023-10-13T03:09:17;95366.56;;;9.75;100.00
10706;BME280;5404;42.656;23.336;2023-10-13T03:11:47;95328.66;;;9.49;100.00
10706;BME280;5404;42.656;23.336;2023-10-13T03:14:21;95357.50;;;9.71;100.00
10706;BME280;5404;42.656;23.336;2023-10-13T03:16:56;95364.94;;;9.74;100.00
10706;BME280;5404;42.656;23.336;2023-10-13T03:19:28;95355.44;;;9.63;100.00
10706;BME280;5404;42.656;23.336;2023-10-13T03:22:04;95361.00;;;9.66;100.00
10706;BME280;5404;42.656;23.336;2023-10-13T03:24:38;95360.78;;;9.58;100.00
10706;BME280;5404;42.656;23.336;2023-10-13T03:27:10;95365.78;;;9.69;100.00
10706;BME280;5404;42.656;23.336;2023-10-13T03:29:38;95372.94;;;9.74;100.00
10706;BME280;5404;42.656;23.336;2023-10-13T03:32:12;95367.38;;;9.65;100.00
10706;BME280;5404;42.656;23.336;2023-10-13T03:34:43;95360.44;;;9.69;100.00
10706;BME280;5404;42.656;23.336;2023-10-13T03:37:19;95377.16;;;9.80;100.00
10706;BME280;5404;42.656;23.336;2023-10-13T03:40:05;95370.78;;;9.76;100.00
10706;BME280;5404;42.656;23.336;2023-10-13T03:42:56;95368.13;;;9.76;100.00
10706;BME280;5404;42.656;23.336;2023-10-13T03:45:25;95337.34;;;9.65;100.00
10706;BME280;5404;42.656;23.336;2023-10-13T03:47:51;95363.84;;;9.80;100.00
10706;BME280;5404;42.656;23.336;2023-10-13T03:50:17;95320.63;;;9.54;100.00
10706;BME280;5404;42.656;23.336;2023-10-13T03:52:58;95350.09;;;9.68;100.00
10706;BME280;5404;42.656;23.336;2023-10-13T03:55:23;95351.34;;;9.80;100.00
10706;BME280;5404;42.656;23.336;2023-10-13T03:57:54;95337.81;;;9.72;100.00
10706;BME280;5404;42.656;23.336;2023-10-13T04:00:21;95334.88;;;9.78;100.00
10706;BME280;5404;42.656;23.336;2023-10-13T04:02:50;95341.00;;;9.74;100.00
10706;BME280;5404;42.656;23.336;2023-10-13T04:05:33;95334.91;;;9.73;100.00
10706;BME280;5404;42.656;23.336;2023-10-13T04:08:05;95331.50;;;9.63;100.00
10706;BME280;5404;42.656;23.336;2023-10-13T04:10:49;95327.00;;;9.53;100.00
10706;BME280;5404;42.656;23.336;2023-10-13T04:13:17;95335.00;;;9.53;100.00
10706;BME280;5404;42.656;23.336;2023-10-13T04:16:01;95318.03;;;9.44;100.00
10706;BME280;5404;42.656;23.336;2023-10-13T04:18:44;95264.78;;;9.05;100.00
10706;BME280;5404;42.656;23.336;2023-10-13T04:21:33;95336.41;;;9.40;100.00
10706;BME280;5404;42.656;23.336;2023-10-13T04:24:06;95351.34;;;9.31;100.00
10706;BME280;5404;42.656;23.336;2023-10-13T04:26:49;95318.72;;;9.11;100.00
10706;BME280;5404;42.656;23.336;2023-10-13T04:29:44;95348.72;;;9.21;100.00
10706;BME280;5404;42.656;23.336;2023-10-13T04:32:13;95350.84;;;9.19;100.00
10706;BME280;5404;42.656;23.336;2023-10-13T04:34:40;95352.19;;;9.17;100.00
10706;BME280;5404;42.656;23.336;2023-10-13T04:37:11;95313.72;;;8.94;100.00
10706;BME280;5404;42.656;23.336;2023-10-13T04:39:54;95332.56;;;9.03;100.00
10706;BME280;5404;42.656;23.336;2023-10-13T04:42:24;95319.31;;;8.93;100.00
10706;BME280;5404;42.656;23.336;2023-10-13T04:45:07;95370.53;;;9.23;100.00
10706;BME280;5404;42.656;23.336;2023-10-13T04:47:53;95361.75;;;9.18;100.00
10706;BME280;5404;42.656;23.336;2023-10-13T04:50:22;95373.69;;;9.25;100.00
10706;BME280;5404;42.656;23.336;2023-10-13T04:52:52;95378.97;;;9.35;100.00
10706;BME280;5404;42.656;23.336;2023-10-13T04:55:27;95386.38;;;9.49;100.00
10706;BME280;5404;42.656;23.336;2023-10-13T04:58:19;95396.19;;;9.53;100.00
10706;BME280;5404;42.656;23.336;2023-10-13T05:00:59;95356.59;;;9.41;100.00
10706;BME280;5404;42.656;23.336;2023-10-13T05:03:43;95373.63;;;9.46;100.00
10706;BME280;5404;42.656;23.336;2023-10-13T05:06:38;95395.56;;;9.71;100.00
10706;BME280;5404;42.656;23.336;2023-10-13T05:09:07;95394.78;;;9.71;100.00
10706;BME280;5404;42.656;23.336;2023-10-13T05:11:51;95372.94;;;9.69;100.00
10706;BME280;5404;42.656;23.336;2023-10-13T05:14:35;95408.16;;;9.99;100.00
10706;BME280;5404;42.656;23.336;2023-10-13T05:17:19;95401.22;;;10.08;100.00
10706;BME280;5404;42.656;23.336;2023-10-13T05:20:04;95414.47;;;10.18;100.00
10706;BME280;5404;42.656;23.336;2023-10-13T05:22:48;95412.28;;;10.25;100.00
10706;BME280;5404;42.656;23.336;2023-10-13T05:25:36;95396.59;;;10.24;100.00
10706;BME280;5404;42.656;23.336;2023-10-13T05:28:20;95420.13;;;10.50;100.00
10706;BME280;5404;42.656;23.336;2023-10-13T05:31:06;95419.00;;;10.56;100.00
10706;BME280;5404;42.656;23.336;2023-10-13T05:33:50;95428.31;;;10.59;100.00
10706;BME280;5404;42.656;23.336;2023-10-13T05:36:34;95428.22;;;10.69;100.00
10706;BME280;5404;42.656;23.336;2023-10-13T05:39:19;95436.94;;;10.80;100.00
10706;BME280;5404;42.656;23.336;2023-10-13T05:42:03;95428.56;;;10.91;100.00
10706;BME280;5404;42.656;23.336;2023-10-13T05:44:47;95427.66;;;11.01;100.00
10706;BME280;5404;42.656;23.336;2023-10-13T05:47:23;95411.66;;;11.01;100.00
10706;BME280;5404;42.656;23.336;2023-10-13T05:50:05;95430.91;;;11.21;100.00
10706;BME280;5404;42.656;23.336;2023-10-13T05:52:46;95422.25;;;11.34;100.00
10706;BME280;5404;42.656;23.336;2023-10-13T05:55:28;95416.22;;;11.47;100.00
10706;BME280;5404;42.656;23.336;2023-10-13T05:58:12;95393.88;;;11.43;100.00
10706;BME280;5404;42.656;23.336;2023-10-13T06:00:56;95421.38;;;11.67;100.00
10706;BME280;5404;42.656;23.336;2023-10-13T06:03:40;95414.28;;;11.77;100.00
10706;BME280;5404;42.656;23.336;2023-10-13T06:06:24;95394.31;;;11.74;100.00
10706;BME280;5404;42.656;23.336;2023-10-13T06:09:09;95422.34;;;11.95;100.00
10706;BME280;5404;42.656;23.336;2023-10-13T06:11:53;95414.13;;;12.10;100.00
10706;BME280;5404;42.656;23.336;2023-10-13T06:14:37;95359.53;;;11.79;100.00
10706;BME280;5404;42.656;23.336;2023-10-13T06:17:21;95427.03;;;12.40;100.00
10706;BME280;5404;42.656;23.336;2023-10-13T06:20:06;95405.66;;;12.40;100.00
10706;BME280;5404;42.656;23.336;2023-10-13T06:22:50;95422.09;;;12.66;100.00
10706;BME280;5404;42.656;23.336;2023-10-13T06:25:34;95426.72;;;12.79;100.00
10706;BME280;5404;42.656;23.336;2023-10-13T06:28:18;95420.16;;;12.85;100.00
10706;BME280;5404;42.656;23.336;2023-10-13T06:31:04;95436.13;;;13.09;100.00
10706;BME280;5404;42.656;23.336;2023-10-13T06:33:33;95410.00;;;13.01;100.00
10706;BME280;5404;42.656;23.336;2023-10-13T06:36:09;95432.59;;;13.27;100.00
10706;BME280;5404;42.656;23.336;2023-10-13T06:38:37;95430.63;;;13.32;100.00
10706;BME280;5404;42.656;23.336;2023-10-13T06:41:04;95434.00;;;13.38;100.00
10706;BME280;5404;42.656;23.336;2023-10-13T06:43:36;95430.31;;;13.47;100.00
10706;BME280;5404;42.656;23.336;2023-10-13T06:46:09;95429.53;;;13.60;100.00
10706;BME280;5404;42.656;23.336;2023-10-13T06:48:42;95445.63;;;13.74;100.00
10706;BME280;5404;42.656;23.336;2023-10-13T06:51:08;95432.50;;;13.86;100.00
10706;BME280;5404;42.656;23.336;2023-10-13T06:53:46;95418.50;;;14.02;100.00
10706;BME280;5404;42.656;23.336;2023-10-13T06:56:15;95421.34;;;14.20;100.00
10706;BME280;5404;42.656;23.336;2023-10-13T06:58:54;95409.44;;;14.26;100.00
10706;BME280;5404;42.656;23.336;2023-10-13T07:01:29;95416.03;;;14.42;100.00
10706;BME280;5404;42.656;23.336;2023-10-13T07:03:55;95398.06;;;14.42;100.00
10706;BME280;5404;42.656;23.336;2023-10-13T07:06:27;95403.25;;;14.61;100.00
10706;BME280;5404;42.656;23.336;2023-10-13T07:08:52;95398.25;;;14.68;100.00
10706;BME280;5404;42.656;23.336;2023-10-13T07:11:19;95390.28;;;14.76;100.00
10706;BME280;5404;42.656;23.336;2023-10-13T07:14:02;95396.00;;;14.83;100.00
10706;BME280;5404;42.656;23.336;2023-10-13T07:16:56;95374.59;;;14.92;100.00
10706;BME280;5404;42.656;23.336;2023-10-13T07:19:28;95377.00;;;15.02;100.00
10706;BME280;5404;42.656;23.336;2023-10-13T07:21:58;95403.84;;;15.33;100.00
10706;BME280;5404;42.656;23.336;2023-10-13T07:24:27;95399.19;;;15.47;100.00
10706;BME280;5404;42.656;23.336;2023-10-13T07:27:05;95409.06;;;15.60;100.00
10706;BME280;5404;42.656;23.336;2023-10-13T07:29:32;95333.41;;;15.27;100.00
10706;BME280;5404;42.656;23.336;2023-10-13T07:32:01;95403.09;;;15.80;100.00
10706;BME280;5404;42.656;23.336;2023-10-13T07:34:34;95392.69;;;15.87;100.00
10706;BME280;5404;42.656;23.336;2023-10-13T07:37:01;95370.56;;;15.81;100.00
10706;BME280;5404;42.656;23.336;2023-10-13T07:39:33;95366.63;;;15.87;100.00
10706;BME280;5404;42.656;23.336;2023-10-13T07:42:04;95390.53;;;16.14;100.00
10706;BME280;5404;42.656;23.336;2023-10-13T07:44:31;95384.53;;;16.34;100.00
10706;BME280;5404;42.656;23.336;2023-10-13T07:46:59;95360.00;;;16.45;100.00
10706;BME280;5404;42.656;23.336;2023-10-13T07:49:30;95381.69;;;16.82;100.00
10706;BME280;5404;42.656;23.336;2023-10-13T07:52:01;95377.88;;;17.00;100.00
10706;BME280;5404;42.656;23.336;2023-10-13T07:54:49;95374.16;;;17.22;100.00
10706;BME280;5404;42.656;23.336;2023-10-13T07:57:24;95373.47;;;17.42;100.00
10706;BME280;5404;42.656;23.336;2023-10-13T07:59:56;95361.03;;;17.58;100.00
10706;BME280;5404;42.656;23.336;2023-10-13T08:02:33;95353.25;;;17.65;100.00
10706;BME280;5404;42.656;23.336;2023-10-13T08:05:15;95376.41;;;17.95;100.00
10706;BME280;5404;42.656;23.336;2023-10-13T08:08:04;95344.19;;;17.99;100.00
10706;BME280;5404;42.656;23.336;2023-10-13T08:10:39;95357.75;;;18.31;100.00
10706;BME280;5404;42.656;23.336;2023-10-13T08:13:07;95359.41;;;18.44;100.00
10706;BME280;5404;42.656;23.336;2023-10-13T08:15:40;95361.69;;;18.54;100.00
10706;BME280;5404;42.656;23.336;2023-10-13T08:18:12;95367.31;;;18.82;100.00
10706;BME280;5404;42.656;23.336;2023-10-13T08:20:45;95361.91;;;19.15;100.00
10706;BME280;5404;42.656;23.336;2023-10-13T08:23:11;95360.06;;;19.39;100.00
10706;BME280;5404;42.656;23.336;2023-10-13T08:25:40;95364.94;;;19.70;100.00
10706;BME280;5404;42.656;23.336;2023-10-13T08:28:24;95366.72;;;20.02;100.00
10706;BME280;5404;42.656;23.336;2023-10-13T08:31:07;95379.25;;;20.31;100.00
10706;BME280;5404;42.656;23.336;2023-10-13T08:34:02;95359.88;;;20.17;100.00
10706;BME280;5404;42.656;23.336;2023-10-13T08:36:41;95377.88;;;20.37;100.00
10706;BME280;5404;42.656;23.336;2023-10-13T08:39:06;95377.50;;;20.78;100.00
10706;BME280;5404;42.656;23.336;2023-10-13T08:41:48;95355.44;;;22.13;100.00
10706;BME280;5404;42.656;23.336;2023-10-13T08:44:43;95325.31;;;23.55;99.70
10706;BME280;5404;42.656;23.336;2023-10-13T08:47:13;95363.38;;;25.11;87.36
10706;BME280;5404;42.656;23.336;2023-10-13T08:49:44;95358.34;;;25.94;75.72
10706;BME280;5404;42.656;23.336;2023-10-13T08:52:17;95347.81;;;25.96;73.81
10706;BME280;5404;42.656;23.336;2023-10-13T08:55:05;95354.91;;;25.57;75.23
10706;BME280;5404;42.656;23.336;2023-10-13T08:57:49;95370.31;;;25.39;76.11
10706;BME280;5404;42.656;23.336;2023-10-13T09:00:18;95363.38;;;25.45;75.15
10706;BME280;5404;42.656;23.336;2023-10-13T09:03:13;95308.81;;;25.99;73.16
10706;BME280;5404;42.656;23.336;2023-10-13T09:05:55;95360.16;;;26.88;67.36
10706;BME280;5404;42.656;23.336;2023-10-13T09:08:29;95357.50;;;27.19;64.79
10706;BME280;5404;42.656;23.336;2023-10-13T09:11:04;95354.53;;;27.63;62.58
10706;BME280;5404;42.656;23.336;2023-10-13T09:13:39;95356.94;;;28.00;60.40
10706;BME280;5404;42.656;23.336;2023-10-13T09:16:13;95361.94;;;28.43;58.04
10706;BME280;5404;42.656;23.336;2023-10-13T09:19:02;95335.97;;;28.94;55.29
10706;BME280;5404;42.656;23.336;2023-10-13T09:21:37;95357.00;;;29.94;51.72
10706;BME280;5404;42.656;23.336;2023-10-13T09:24:03;95347.88;;;30.51;49.10
10706;BME280;5404;42.656;23.336;2023-10-13T09:26:48;95348.69;;;30.48;47.69
10706;BME280;5404;42.656;23.336;2023-10-13T09:29:19;95299.34;;;29.90;48.01
10706;BME280;5404;42.656;23.336;2023-10-13T09:31:46;95308.66;;;30.44;46.16
10706;BME280;5404;42.656;23.336;2023-10-13T09:34:21;95338.91;;;30.44;45.46
10706;BME280;5404;42.656;23.336;2023-10-13T09:36:49;95339.75;;;29.90;46.67
10706;BME280;5404;42.656;23.336;2023-10-13T09:39:25;95333.41;;;29.96;46.80
10706;BME280;5404;42.656;23.336;2023-10-13T09:42:09;95329.22;;;29.85;46.54
10706;BME280;5404;42.656;23.336;2023-10-13T09:44:36;95331.28;;;29.73;47.75
10706;BME280;5404;42.656;23.336;2023-10-13T09:47:03;95274.38;;;29.63;45.33
10706;BME280;5404;42.656;23.336;2023-10-13T09:49:40;95326.59;;;29.67;46.00
10706;BME280;5404;42.656;23.336;2023-10-13T09:52:18;95318.00;;;28.82;48.04
10706;BME280;5404;42.656;23.336;2023-10-13T09:57:41;95304.03;;;28.31;49.20
10706;BME280;5404;42.656;23.336;2023-10-13T10:00:17;95315.00;;;27.85;50.36
10706;BME280;5404;42.656;23.336;2023-10-13T10:03:09;95303.25;;;27.88;50.21
10706;BME280;5404;42.656;23.336;2023-10-13T10:06:02;95304.38;;;28.57;45.89
10706;BME280;5404;42.656;23.336;2023-10-13T10:08:44;95302.13;;;29.25;44.52
10706;BME280;5404;42.656;23.336;2023-10-13T10:12:01;95312.06;;;29.70;42.61
10706;BME280;5404;42.656;23.336;2023-10-13T10:15:11;95306.09;;;29.82;41.77
10706;BME280;5404;42.656;23.336;2023-10-13T10:17:10;95301.72;;;29.26;41.85
10706;BME280;5404;42.656;23.336;2023-10-13T10:19:52;95291.09;;;29.35;41.62
10706;BME280;5404;42.656;23.336;2023-10-13T10:22:39;95292.75;;;29.81;41.47
10706;BME280;5404;42.656;23.336;2023-10-13T10:25:10;95248.56;;;29.57;41.29
10706;BME280;5404;42.656;23.336;2023-10-13T10:27:57;95284.50;;;30.21;40.38
10706;BME280;5404;42.656;23.336;2023-10-13T10:30:27;95280.97;;;30.61;39.88
10706;BME280;5404;42.656;23.336;2023-10-13T10:32:56;95285.16;;;31.03;38.14
10706;BME280;5404;42.656;23.336;2023-10-13T10:35:27;95271.78;;;31.35;36.94
10706;BME280;5404;42.656;23.336;2023-10-13T10:38:06;95278.22;;;30.95;35.84
10706;BME280;5404;42.656;23.336;2023-10-13T10:40:48;95286.09;;;30.93;34.54
10706;BME280;5404;42.656;23.336;2023-10-13T10:43:17;95276.16;;;30.69;34.66
10706;BME280;5404;42.656;23.336;2023-10-13T10:45:47;95277.47;;;30.91;34.55
10706;BME280;5404;42.656;23.336;2023-10-13T10:48:16;95276.66;;;30.94;34.35
10706;BME280;5404;42.656;23.336;2023-10-13T10:50:53;95278.09;;;30.68;34.94
10706;BME280;5404;42.656;23.336;2023-10-13T10:53:20;95255.22;;;30.45;34.97
10706;BME280;5404;42.656;23.336;2023-10-13T10:55:47;95275.00;;;29.89;36.20
10706;BME280;5404;42.656;23.336;2023-10-13T10:58:13;95270.97;;;29.52;37.09
10706;BME280;5404;42.656;23.336;2023-10-13T11:01:06;95271.09;;;29.86;36.42
10706;BME280;5404;42.656;23.336;2023-10-13T11:03:59;95255.72;;;29.44;36.84
10706;BME280;5404;42.656;23.336;2023-10-13T11:06:37;95271.56;;;29.19;37.80
10706;BME280;5404;42.656;23.336;2023-10-13T11:09:11;95265.84;;;28.93;37.71
10706;BME280;5404;42.656;23.336;2023-10-13T11:11:52;95243.84;;;29.00;37.86
10706;BME280;5404;42.656;23.336;2023-10-13T11:14:25;95258.63;;;29.23;37.56
10706;BME280;5404;42.656;23.336;2023-10-13T11:16:52;95253.47;;;29.32;37.66
10706;BME280;5404;42.656;23.336;2023-10-13T11:19:42;95254.00;;;29.64;37.35
10706;BME280;5404;42.656;23.336;2023-10-13T11:22:14;95253.03;;;29.89;36.61
10706;BME280;5404;42.656;23.336;2023-10-13T11:25:01;95246.28;;;29.93;36.15
10706;BME280;5404;42.656;23.336;2023-10-13T11:27:34;95244.81;;;29.85;36.81
10706;BME280;5404;42.656;23.336;2023-10-13T11:30:24;95242.66;;;30.03;36.18
10706;BME280;5404;42.656;23.336;2023-10-13T11:33:10;95209.13;;;30.19;35.89
10706;BME280;5404;42.656;23.336;2023-10-13T11:35:37;95236.50;;;30.66;35.60
10706;BME280;5404;42.656;23.336;2023-10-13T11:38:28;95227.13;;;30.94;34.05
10706;BME280;5404;42.656;23.336;2023-10-13T11:40:58;95235.00;;;30.92;34.03
10706;BME280;5404;42.656;23.336;2023-10-13T11:43:49;95230.94;;;31.00;34.59
10706;BME280;5404;42.656;23.336;2023-10-13T11:46:16;95227.75;;;30.75;34.13
10706;BME280;5404;42.656;23.336;2023-10-13T11:48:45;95223.03;;;30.72;34.81
10706;BME280;5404;42.656;23.336;2023-10-13T11:51:13;95219.00;;;30.83;34.25
10706;BME280;5404;42.656;23.336;2023-10-13T11:53:52;95226.50;;;30.49;34.33
10706;BME280;5404;42.656;23.336;2023-10-13T11:56:19;95220.34;;;29.98;35.18
10706;BME280;5404;42.656;23.336;2023-10-13T11:58:48;95211.69;;;29.55;35.31
10706;BME280;5404;42.656;23.336;2023-10-13T12:01:14;95206.03;;;29.28;36.52
10706;BME280;5404;42.656;23.336;2023-10-13T12:03:44;95205.75;;;29.05;36.99
10706;BME280;5404;42.656;23.336;2023-10-13T12:06:28;95203.81;;;29.09;36.75
10706;BME280;5404;42.656;23.336;2023-10-13T12:09:07;95198.53;;;28.71;37.31
10706;BME280;5404;42.656;23.336;2023-10-13T12:11:59;95149.09;;;27.98;37.35
10706;BME280;5404;42.656;23.336;2023-10-13T12:14:29;95199.13;;;28.20;37.28
10706;BME280;5404;42.656;23.336;2023-10-13T12:17:02;95190.94;;;28.13;38.29
10706;BME280;5404;42.656;23.336;2023-10-13T12:19:36;95178.06;;;27.82;37.97
10706;BME280;5404;42.656;23.336;2023-10-13T12:22:01;95192.16;;;27.84;37.52
10706;BME280;5404;42.656;23.336;2023-10-13T12:24:33;95180.00;;;27.88;37.84
10706;BME280;5404;42.656;23.336;2023-10-13T12:27:06;95192.13;;;28.05;38.26
10706;BME280;5404;42.656;23.336;2023-10-13T12:29:51;95186.28;;;27.96;37.72
10706;BME280;5404;42.656;23.336;2023-10-13T12:32:20;95194.03;;;28.22;38.14
10706;BME280;5404;42.656;23.336;2023-10-13T12:34:56;95184.56;;;28.37;37.56
10706;BME280;5404;42.656;23.336;2023-10-13T12:37:31;95185.44;;;28.16;37.67
10706;BME280;5404;42.656;23.336;2023-10-13T12:40:12;95180.81;;;27.82;38.33
10706;BME280;5404;42.656;23.336;2023-10-13T12:42:56;95176.94;;;27.69;39.01
10706;BME280;5404;42.656;23.336;2023-10-13T12:45:41;95174.53;;;27.78;38.44
10706;BME280;5404;42.656;23.336;2023-10-13T12:48:25;95183.94;;;27.91;38.43
10706;BME280;5404;42.656;23.336;2023-10-13T12:51:09;95181.19;;;27.98;38.67
10706;BME280;5404;42.656;23.336;2023-10-13T12:53:51;95152.59;;;27.88;38.48
10706;BME280;5404;42.656;23.336;2023-10-13T12:56:18;95171.69;;;28.30;38.07
10706;BME280;5404;42.656;23.336;2023-10-13T12:58:51;95172.41;;;28.38;37.99
10706;BME280;5404;42.656;23.336;2023-10-13T13:03:49;95152.41;;;28.48;37.49
10706;BME280;5404;42.656;23.336;2023-10-13T13:06:16;95170.25;;;28.84;36.74
10706;BME280;5404;42.656;23.336;2023-10-13T13:08:43;95151.41;;;28.83;36.47
10706;BME280;5404;42.656;23.336;2023-10-13T13:11:10;95170.13;;;28.98;36.30
10706;BME280;5404;42.656;23.336;2023-10-13T13:13:36;95172.41;;;29.14;36.12
10706;BME280;5404;42.656;23.336;2023-10-13T13:16:01;95170.34;;;29.28;36.15
10706;BME280;5404;42.656;23.336;2023-10-13T13:18:28;95153.06;;;29.28;35.04
10706;BME280;5404;42.656;23.336;2023-10-13T13:20:54;95175.94;;;29.58;34.61
10706;BME280;5404;42.656;23.336;2023-10-13T13:23:20;95140.47;;;29.37;34.74
10706;BME280;5404;42.656;23.336;2023-10-13T13:25:47;95169.28;;;29.59;34.83
10706;BME280;5404;42.656;23.336;2023-10-13T13:28:13;95175.28;;;29.47;34.93
10706;BME280;5404;42.656;23.336;2023-10-13T13:30:43;95179.38;;;29.29;34.85
10706;BME280;5404;42.656;23.336;2023-10-13T13:33:09;95165.59;;;29.32;35.14
10706;BME280;5404;42.656;23.336;2023-10-13T13:35:40;95175.31;;;29.44;35.06
10706;BME280;5404;42.656;23.336;2023-10-13T13:38:09;95159.91;;;29.53;35.55
10706;BME280;5404;42.656;23.336;2023-10-13T13:40:37;95167.69;;;29.58;35.69
10706;BME280;5404;42.656;23.336;2023-10-13T13:43:03;95145.91;;;29.41;35.98